Time;durP1;ratioP1;P1;durP2;ratioP2;P2;SDS_P1;SDS_P2;PMS_P1;PMS_P2;Temp;Humidity;BMP_temperature;BMP_pressure;BME280_temperature;BME280_humidity;BME280_pressure;Samples;Min_cycle;Max_cycle;Signal;HPM_P1;HPM_P2
2021/05/25 00:02:02;;;;;;;54.30;51.00;;;17.90;99.90;;;;;;5016023;28;20071;-63
2021/05/25 00:04:29;;;;;;;56.63;53.22;;;18.00;99.90;;;;;;5015982;28;20391;-66
2021/05/25 00:06:57;;;;;;;51.92;48.45;;;18.10;99.90;;;;;;5015924;28;20040;-65
2021/05/25 00:09:24;;;;;;;54.58;51.38;;;18.10;99.90;;;;;;5015936;28;20125;-64
2021/05/25 00:11:51;;;;;;;54.08;51.20;;;18.20;99.90;;;;;;5015780;28;20486;-64
2021/05/25 00:14:20;;;;;;;51.88;49.03;;;18.30;99.90;;;;;;5015708;28;20026;-65
2021/05/25 00:16:50;;;;;;;52.15;49.15;;;18.50;99.90;;;;;;5015651;28;20030;-64
2021/05/25 00:19:18;;;;;;;50.08;46.97;;;18.60;99.90;;;;;;5015613;28;20513;-64
2021/05/25 00:21:46;;;;;;;47.42;44.60;;;18.70;99.90;;;;;;5015369;28;20497;-64
2021/05/25 00:24:13;;;;;;;43.03;40.53;;;18.80;99.90;;;;;;5015614;28;20502;-64
2021/05/25 00:26:41;;;;;;;39.47;37.30;;;18.90;99.90;;;;;;5015638;28;20086;-65
2021/05/25 00:29:08;;;;;;;39.35;37.25;;;19.00;99.90;;;;;;4998183;28;20029;-66
2021/05/25 00:31:36;;;;;;;37.80;35.80;;;19.10;99.90;;;;;;5015553;28;20022;-65
2021/05/25 00:34:04;;;;;;;37.08;35.00;;;19.10;99.90;;;;;;5015415;28;20483;-64
2021/05/25 00:36:31;;;;;;;35.10;33.13;;;19.20;99.90;;;;;;5015303;28;20022;-64
2021/05/25 00:38:59;;;;;;;33.45;31.70;;;19.30;99.90;;;;;;5015451;28;20033;-64
2021/05/25 00:41:26;;;;;;;31.95;30.35;;;19.30;99.90;;;;;;5015465;28;20021;-64
2021/05/25 00:43:54;;;;;;;29.27;27.80;;;19.20;99.90;;;;;;5015454;28;20018;-66
2021/05/25 00:46:21;;;;;;;27.25;25.55;;;19.20;99.90;;;;;;5015165;28;20034;-65
2021/05/25 00:48:49;;;;;;;29.17;27.58;;;19.20;99.90;;;;;;5015212;28;20026;-63
2021/05/25 00:51:16;;;;;;;25.55;24.33;;;19.30;99.90;;;;;;5015178;28;20053;-63
2021/05/25 00:53:44;;;;;;;24.58;23.27;;;19.30;99.90;;;;;;5015022;28;20482;-65
2021/05/25 00:56:12;;;;;;;24.90;23.50;;;19.40;99.90;;;;;;5014994;28;20117;-66
2021/05/25 00:58:40;;;;;;;24.77;23.48;;;19.40;99.90;;;;;;5008434;28;20042;-66
2021/05/25 01:01:07;;;;;;;24.13;22.92;;;19.40;99.90;;;;;;4995413;28;20030;-67
2021/05/25 01:03:35;;;;;;;23.67;22.38;;;19.60;99.90;;;;;;4995531;28;20026;-66
2021/05/25 01:06:02;;;;;;;23.15;21.95;;;19.60;99.90;;;;;;4995566;28;20022;-66
2021/05/25 01:08:30;;;;;;;19.75;18.63;;;19.80;99.90;;;;;;4995496;28;20057;-65
2021/05/25 01:11:03;;;;;;;17.27;16.38;;;19.80;99.90;;;;;;4995312;28;20514;-68
2021/05/25 01:13:34;;;;;;;16.45;15.57;;;19.80;99.90;;;;;;4995652;28;20023;-67
2021/05/25 01:16:01;;;;;;;15.25;14.43;;;19.80;99.90;;;;;;4995088;28;20105;-66
2021/05/25 01:18:29;;;;;;;14.20;13.32;;;19.80;99.90;;;;;;4994964;28;20044;-66
2021/05/25 01:20:56;;;;;;;12.15;11.65;;;19.90;99.90;;;;;;4994734;28;20109;-66
2021/05/25 01:23:24;;;;;;;10.68;10.18;;;20.00;99.90;;;;;;4995199;28;20029;-65
2021/05/25 01:25:52;;;;;;;8.95;8.45;;;19.90;99.90;;;;;;4995060;28;20073;-67
2021/05/25 01:28:21;;;;;;;7.90;7.30;;;20.00;99.90;;;;;;4994852;28;20513;-66
2021/05/25 01:30:52;;;;;;;8.30;7.93;;;20.10;99.90;;;;;;4994985;28;20024;-67
2021/05/25 01:33:20;;;;;;;6.30;6.00;;;20.10;99.90;;;;;;4994874;28;20014;-67
2021/05/25 01:35:48;;;;;;;6.50;6.05;;;20.10;99.90;;;;;;4994851;28;20027;-61
2021/05/25 01:38:17;;;;;;;5.75;5.45;;;20.20;99.90;;;;;;4994595;28;20034;-62
2021/05/25 01:40:45;;;;;;;5.20;4.80;;;20.30;99.90;;;;;;4994624;28;20021;-62
2021/05/25 01:43:13;;;;;;;6.15;5.65;;;20.20;99.90;;;;;;4994263;28;20105;-62
2021/05/25 01:45:42;;;;;;;4.80;4.50;;;20.30;99.90;;;;;;4994516;28;20019;-62
2021/05/25 01:48:11;;;;;;;4.47;4.18;;;20.20;99.90;;;;;;4994449;28;20023;-61
2021/05/25 01:50:41;;;;;;;4.60;4.40;;;20.30;99.90;;;;;;4994406;28;20030;-62
2021/05/25 01:53:08;;;;;;;;;;;20.40;99.90;;;;;;4977934;28;20483;-62
2021/05/25 01:55:38;;;;;;;5.00;4.80;;;20.40;99.90;;;;;;4994314;28;19992;-62
2021/05/25 01:58:14;;;;;;;5.07;4.87;;;20.50;99.90;;;;;;4996040;28;20116;-64
2021/05/25 02:00:48;;;;;;;5.53;5.00;;;20.70;99.90;;;;;;5013940;28;20033;-61
2021/05/25 02:03:16;;;;;;;5.20;4.93;;;20.80;99.90;;;;;;5013908;28;20018;-61
2021/05/25 02:05:45;;;;;;;5.35;4.95;;;20.80;99.90;;;;;;5013727;28;20026;-62
2021/05/25 02:08:13;;;;;;;5.07;4.78;;;20.70;99.90;;;;;;5013614;28;20045;-62
2021/05/25 02:10:43;;;;;;;4.65;4.22;;;20.90;99.90;;;;;;5013851;28;20022;-62
2021/05/25 02:13:13;;;;;;;4.93;4.63;;;20.90;99.90;;;;;;4996569;28;20021;-62
2021/05/25 02:15:42;;;;;;;6.75;5.72;;;20.70;99.90;;;;;;5014048;28;20026;-61
2021/05/25 02:18:13;;;;;;;5.20;4.40;;;20.80;99.90;;;;;;5013485;28;20064;-61
2021/05/25 02:20:46;;;;;;;5.03;4.60;;;20.90;99.90;;;;;;5013355;28;20018;-58
2021/05/25 02:23:15;;;;;;;4.60;4.30;;;20.90;99.90;;;;;;5013360;28;20030;-58
2021/05/25 02:25:42;;;;;;;4.15;3.90;;;20.90;99.90;;;;;;5013473;28;20053;-55
2021/05/25 02:28:11;;;;;;;4.03;3.70;;;20.60;99.90;;;;;;5013748;28;20026;-57
2021/05/25 02:30:40;;;;;;;3.78;3.40;;;20.80;99.90;;;;;;5013378;28;20092;-56
2021/05/25 02:33:13;;;;;;;3.88;3.58;;;20.80;99.90;;;;;;5013117;28;20045;-57
2021/05/25 02:35:42;;;;;;;3.50;3.30;;;20.80;99.90;;;;;;5013209;28;20049;-56
2021/05/25 02:38:12;;;;;;;3.50;3.30;;;20.70;99.90;;;;;;5013171;28;20079;-57
2021/05/25 02:40:42;;;;;;;4.68;3.50;;;20.70;99.90;;;;;;5013226;28;20037;-55
2021/05/25 02:43:10;;;;;;;3.88;3.55;;;20.90;99.90;;;;;;5013321;28;20313;-56
2021/05/25 02:45:37;;;;;;;4.07;3.72;;;20.90;99.90;;;;;;5013389;28;20148;-57
2021/05/25 02:48:06;;;;;;;4.43;4.03;;;21.10;99.90;;;;;;5013313;28;20030;-58
2021/05/25 02:50:34;;;;;;;4.55;4.03;;;21.00;99.90;;;;;;5013191;28;20026;-58
2021/05/25 02:53:01;;;;;;;4.65;3.90;;;20.90;99.90;;;;;;5012886;28;20037;-57
2021/05/25 02:55:31;;;;;;;3.50;3.30;;;20.90;99.90;;;;;;5013185;28;20483;-57
2021/05/25 02:58:00;;;;;;;4.03;3.60;;;21.00;99.90;;;;;;5011793;28;20494;-58
2021/05/25 03:00:30;;;;;;;4.50;4.10;;;21.10;99.90;;;;;;4993447;28;20026;-56
2021/05/25 03:02:58;;;;;;;4.63;4.00;;;21.10;99.90;;;;;;4993552;28;20097;-57
2021/05/25 03:05:26;;;;;;;3.45;3.25;;;21.20;99.90;;;;;;4993350;28;20081;-57
2021/05/25 03:07:55;;;;;;;4.57;3.95;;;21.10;99.90;;;;;;4993230;28;20034;-57
2021/05/25 03:10:26;;;;;;;5.38;3.80;;;21.00;99.90;;;;;;4993559;28;20487;-57
2021/05/25 03:12:54;;;;;;;4.20;3.80;;;21.00;99.90;;;;;;4993483;28;20480;-57
2021/05/25 03:15:28;;;;;;;6.22;3.90;;;21.20;99.90;;;;;;4993208;28;20088;-58
2021/05/25 03:17:56;;;;;;;5.93;3.90;;;21.10;99.90;;;;;;4993017;28;20027;-59
2021/05/25 03:20:24;;;;;;;9.45;5.20;;;21.00;99.90;;;;;;4993242;28;20050;-58
2021/05/25 03:22:51;;;;;;;7.32;4.97;;;21.10;99.90;;;;;;4976135;28;20023;-61
2021/05/25 03:25:19;;;;;;;4.82;4.28;;;21.00;99.90;;;;;;4993744;28;20101;-57
2021/05/25 03:27:47;;;;;;;5.22;4.28;;;21.00;99.90;;;;;;4993188;28;20061;-57
2021/05/25 03:30:22;;;;;;;5.05;4.07;;;21.10;99.90;;;;;;4993309;28;20084;-57
2021/05/25 03:32:50;;;;;;;5.25;4.05;;;21.10;99.90;;;;;;4994526;28;20419;-57
2021/05/25 03:35:20;;;;;;;4.53;4.10;;;20.90;99.90;;;;;;4996921;28;20412;-58
2021/05/25 03:37:48;;;;;;;4.68;3.90;;;21.10;99.90;;;;;;4996854;28;20038;-58
2021/05/25 03:40:16;;;;;;;4.30;4.00;;;21.20;99.90;;;;;;4996982;28;20023;-56
2021/05/25 03:42:51;;;;;;;6.43;4.65;;;21.00;99.90;;;;;;4996889;28;20098;-57
2021/05/25 03:45:20;;;;;;;5.47;4.97;;;21.00;99.90;;;;;;4979321;28;20020;-57
2021/05/25 03:47:47;;;;;;;6.38;4.32;;;21.20;99.90;;;;;;4996757;28;20087;-57
2021/05/25 03:50:16;;;;;;;5.25;4.85;;;21.30;99.90;;;;;;4996699;28;20026;-58
2021/05/25 03:52:47;;;;;;;7.70;4.93;;;21.20;99.90;;;;;;4996503;28;20037;-58
2021/05/25 04:00:54;;;;;;;6.00;5.40;;;21.30;99.90;;;;;;5016508;28;20037;-57
2021/05/25 04:03:22;;;;;;;10.05;5.32;;;21.20;99.90;;;;;;5016105;28;20433;-59
2021/05/25 04:05:50;;;;;;;7.15;5.05;;;21.00;99.90;;;;;;5016057;28;20105;-58
2021/05/25 04:08:18;;;;;;;6.38;5.40;;;21.00;99.90;;;;;;5015781;28;20026;-57
2021/05/25 04:10:46;;;;;;;8.48;5.00;;;20.90;99.90;;;;;;5016074;28;20103;-58
2021/05/25 04:13:15;;;;;;;6.28;4.93;;;20.80;99.90;;;;;;5015945;28;20037;-58
2021/05/25 04:15:48;;;;;;;8.23;5.00;;;20.60;99.90;;;;;;5016007;28;20026;-57
2021/05/25 04:18:16;;;;;;;5.95;5.03;;;20.60;99.90;;;;;;5015848;28;20022;-58
2021/05/25 04:20:43;;;;;;;6.10;5.43;;;20.50;99.90;;;;;;5015627;28;20022;-57
2021/05/25 04:23:11;;;;;;;7.65;5.57;;;20.50;99.90;;;;;;5015721;28;20021;-58
2021/05/25 04:25:38;;;;;;;6.95;6.30;;;20.40;99.90;;;;;;5015611;28;20026;-57
2021/05/25 04:28:06;;;;;;;6.28;5.72;;;20.50;99.90;;;;;;5015354;28;20022;-58
2021/05/25 04:30:34;;;;;;;8.07;4.45;;;20.30;99.90;;;;;;5015540;28;20386;-56
2021/05/25 04:33:01;;;;;;;7.97;4.00;;;20.30;99.90;;;;;;5015527;28;20101;-56
2021/05/25 04:35:29;;;;;;;9.25;6.03;;;20.20;99.90;;;;;;5015431;28;20482;-57
2021/05/25 04:37:58;;;;;;;7.07;6.45;;;20.30;99.90;;;;;;5015257;28;20116;-56
2021/05/25 04:40:26;;;;;;;10.43;5.55;;;20.20;99.90;;;;;;5015196;28;20026;-57
2021/05/25 04:42:54;;;;;;;8.80;5.47;;;20.20;99.90;;;;;;5015246;28;20053;-57
2021/05/25 04:45:21;;;;;;;6.57;5.85;;;20.10;99.90;;;;;;5014855;28;20118;-61
2021/05/25 04:47:49;;;;;;;8.70;5.97;;;20.10;99.90;;;;;;5015215;28;20451;-56
2021/05/25 04:50:19;;;;;;;6.75;5.88;;;20.00;99.90;;;;;;5015225;28;20034;-57
2021/05/25 04:52:48;;;;;;;7.80;6.20;;;20.00;99.90;;;;;;5015209;28;20049;-58
2021/05/25 04:55:18;;;;;;;7.00;5.50;;;19.90;99.90;;;;;;5015092;28;20026;-58
2021/05/25 04:57:45;;;;;;;7.90;5.68;;;20.00;99.90;;;;;;5014998;28;20483;-56
2021/05/25 05:00:18;;;;;;;7.45;6.18;;;19.90;99.90;;;;;;4995797;28;20563;-57
2021/05/25 05:02:45;;;;;;;8.05;6.88;;;19.80;99.90;;;;;;4995215;28;20395;-58
2021/05/25 05:05:13;;;;;;;7.10;6.45;;;19.80;99.90;;;;;;4995569;28;20014;-57
2021/05/25 05:07:41;;;;;;;8.73;6.57;;;19.70;99.90;;;;;;4995094;28;20030;-58
2021/05/25 05:10:09;;;;;;;7.72;6.80;;;19.60;99.90;;;;;;4995182;28;20082;-57
2021/05/25 05:12:37;;;;;;;7.47;6.85;;;19.60;99.90;;;;;;4994974;28;20034;-56
2021/05/25 05:15:06;;;;;;;7.13;6.43;;;19.70;99.90;;;;;;4995142;28;20395;-57
2021/05/25 05:17:33;;;;;;;6.93;6.30;;;19.70;99.90;;;;;;4995022;28;20030;-57
2021/05/25 05:20:02;;;;;;;8.48;6.90;;;19.60;99.90;;;;;;4994932;28;20080;-57
2021/05/25 05:22:30;;;;;;;7.88;6.85;;;19.50;99.90;;;;;;4994809;28;20122;-57
2021/05/25 05:24:57;;;;;;;7.97;7.07;;;19.50;99.90;;;;;;4994699;28;20026;-58
2021/05/25 05:27:25;;;;;;;8.73;7.10;;;19.50;99.90;;;;;;4977319;28;20034;-58
2021/05/25 05:29:52;;;;;;;8.02;6.88;;;19.50;99.90;;;;;;4961219;28;20037;-57
2021/05/25 05:32:19;;;;;;;7.93;7.22;;;19.50;99.90;;;;;;4994859;28;20030;-57
2021/05/25 05:34:47;;;;;;;8.10;7.10;;;19.50;99.90;;;;;;4994607;28;20034;-58
2021/05/25 05:37:14;;;;;;;8.32;6.80;;;19.40;99.90;;;;;;4994927;28;20026;-56
2021/05/25 05:39:43;;;;;;;8.20;6.78;;;19.40;99.90;;;;;;4994707;28;20014;-58
2021/05/25 05:42:11;;;;;;;9.73;6.63;;;19.30;99.90;;;;;;4994440;28;20049;-56
2021/05/25 05:44:39;;;;;;;7.47;6.60;;;19.30;99.90;;;;;;4994581;28;20050;-58
2021/05/25 05:47:06;;;;;;;7.65;7.00;;;19.20;99.90;;;;;;4994428;28;20033;-58
2021/05/25 05:49:34;;;;;;;8.40;7.47;;;19.20;99.90;;;;;;4994528;28;20023;-59
2021/05/25 05:52:01;;;;;;;9.13;8.13;;;19.10;99.90;;;;;;4994265;28;20447;-58
2021/05/25 05:54:28;;;;;;;8.55;7.75;;;18.90;99.90;;;;;;4994452;28;20022;-58
2021/05/25 05:56:56;;;;;;;10.27;9.40;;;18.90;99.90;;;;;;4993426;28;20109;-58
2021/05/25 05:59:23;;;;;;;10.45;9.60;;;18.80;99.90;;;;;;4976833;28;20069;-58
2021/05/25 06:01:50;;;;;;;11.80;10.60;;;18.80;99.90;;;;;;4994583;28;20428;-58
2021/05/25 06:04:18;;;;;;;12.82;11.40;;;18.60;99.90;;;;;;4994109;28;20022;-58
2021/05/25 06:06:45;;;;;;;13.20;12.30;;;18.60;99.90;;;;;;4994193;28;20022;-59
2021/05/25 06:09:12;;;;;;;15.05;13.77;;;18.50;99.90;;;;;;4994096;28;20092;-58
2021/05/25 06:11:40;;;;;;;14.60;13.50;;;18.40;99.90;;;;;;4994075;28;20093;-58
2021/05/25 06:14:07;;;;;;;16.20;14.82;;;18.40;99.90;;;;;;4994068;28;20105;-58
2021/05/25 06:16:35;;;;;;;16.80;15.70;;;18.20;99.90;;;;;;4994107;28;20026;-58
2021/05/25 06:19:03;;;;;;;18.48;16.92;;;18.20;99.90;;;;;;4993844;28;20060;-58
2021/05/25 06:21:30;;;;;;;20.35;18.73;;;18.20;99.90;;;;;;4994010;28;20019;-59
2021/05/25 06:23:57;;;;;;;20.50;19.23;;;18.10;99.90;;;;;;4993903;28;20023;-57
2021/05/25 06:26:25;;;;;;;21.85;20.63;;;18.10;99.90;;;;;;4993799;28;20486;-58
2021/05/25 06:28:53;;;;;;;23.70;22.02;;;17.90;99.90;;;;;;4993777;28;20027;-58
2021/05/25 06:31:21;;;;;;;23.92;22.08;;;17.90;99.90;;;;;;4993531;28;20226;-58
2021/05/25 06:33:48;;;;;;;23.63;22.17;;;17.80;99.90;;;;;;4993685;28;20022;-58
2021/05/25 06:36:16;;;;;;;24.40;22.90;;;17.70;99.90;;;;;;4993522;28;20105;-57
2021/05/25 06:38:43;;;;;;;27.13;25.35;;;17.60;99.90;;;;;;4993435;28;20026;-56
2021/05/25 06:41:11;;;;;;;27.05;25.45;;;17.50;99.90;;;;;;4993445;28;20496;-58
2021/05/25 06:43:38;;;;;;;27.98;26.52;;;17.50;99.90;;;;;;4993449;28;20018;-58
2021/05/25 06:46:07;;;;;;;29.40;27.52;;;17.40;99.90;;;;;;4993622;28;20018;-58
2021/05/25 06:48:35;;;;;;;33.80;31.50;;;17.30;99.90;;;;;;4993227;28;20018;-56
2021/05/25 06:51:07;;;;;;;34.90;32.65;;;17.40;99.90;;;;;;4993444;28;20106;-56
2021/05/25 06:53:35;;;;;;;35.80;33.72;;;17.30;99.90;;;;;;4993435;28;20531;-55
2021/05/25 06:56:04;;;;;;;36.85;34.70;;;17.30;99.90;;;;;;4993209;28;20388;-57
2021/05/25 06:58:32;;;;;;;38.13;35.45;;;17.20;99.90;;;;;;4993255;28;20050;-57
2021/05/25 07:01:00;;;;;;;37.65;35.38;;;17.10;99.90;;;;;;4993145;28;20109;-57
2021/05/25 07:03:27;;;;;;;39.17;36.65;;;17.00;99.90;;;;;;4993310;28;20019;-57
2021/05/25 07:05:55;;;;;;;40.70;37.78;;;16.90;99.90;;;;;;4993361;28;20368;-57
2021/05/25 07:08:22;;;;;;;43.85;41.00;;;16.90;99.90;;;;;;4995533;28;20018;-57
2021/05/25 07:10:49;;;;;;;45.15;42.00;;;16.90;99.90;;;;;;4997260;28;20026;-58
2021/05/25 07:13:17;;;;;;;46.25;42.95;;;16.80;99.90;;;;;;4997191;28;20113;-57
2021/05/25 07:15:44;;;;;;;44.42;41.45;;;16.80;99.90;;;;;;4997339;28;20034;-58
2021/05/25 07:18:16;;;;;;;50.22;46.45;;;16.80;99.90;;;;;;4996987;28;20117;-56
2021/05/25 07:20:43;;;;;;;51.45;47.92;;;16.70;99.90;;;;;;4996855;28;20029;-58
2021/05/25 07:23:11;;;;;;;51.85;48.33;;;16.60;99.90;;;;;;4997109;28;20026;-56
2021/05/25 07:25:38;;;;;;;51.78;48.30;;;16.60;99.90;;;;;;4997006;28;20022;-58
2021/05/25 07:28:06;;;;;;;51.05;47.75;;;16.60;99.90;;;;;;4996972;28;20019;-56
2021/05/25 07:30:35;;;;;;;49.55;46.40;;;16.60;99.90;;;;;;4996764;28;20035;-57
2021/05/25 07:33:03;;;;;;;48.65;45.50;;;16.50;99.90;;;;;;4996638;28;20026;-58
2021/05/25 07:35:30;;;;;;;47.47;44.38;;;16.50;99.90;;;;;;4996823;28;20023;-56
2021/05/25 07:37:58;;;;;;;50.22;46.92;;;16.50;99.90;;;;;;4996835;28;20143;-57
2021/05/25 07:40:25;;;;;;;46.75;43.42;;;16.50;99.90;;;;;;4996587;28;20053;-56
2021/05/25 07:42:53;;;;;;;48.08;44.30;;;16.40;99.90;;;;;;4996815;28;20030;-58
2021/05/25 07:45:23;;;;;;;44.40;40.95;;;16.30;99.90;;;;;;4996763;28;20479;-57
2021/05/25 07:47:50;;;;;;;45.95;42.45;;;16.30;99.90;;;;;;4996814;28;20501;-55
2021/05/25 07:50:18;;;;;;;43.47;40.35;;;16.20;99.90;;;;;;4996487;28;20031;-53
2021/05/25 07:52:48;;;;;;;42.63;39.25;;;16.20;99.90;;;;;;4996483;28;20368;-54
2021/05/25 07:55:17;;;;;;;44.45;40.78;;;16.20;99.90;;;;;;4997010;28;20030;-56
2021/05/25 07:57:44;;;;;;;43.30;40.22;;;16.20;99.90;;;;;;4996808;28;20030;-56
2021/05/25 08:00:12;;;;;;;41.22;38.00;;;16.10;99.90;;;;;;5015125;28;20538;-56
2021/05/25 08:02:41;;;;;;;40.60;37.70;;;16.20;99.90;;;;;;5015929;28;20033;-57
2021/05/25 08:05:09;;;;;;;41.13;38.20;;;16.20;99.90;;;;;;5016008;28;20030;-57
2021/05/25 08:07:37;;;;;;;42.80;39.80;;;16.20;99.90;;;;;;5015920;28;20104;-57
2021/05/25 08:10:05;;;;;;;43.67;40.63;;;16.30;99.90;;;;;;5015928;28;20049;-57
2021/05/25 08:12:33;;;;;;;45.75;42.65;;;16.20;99.90;;;;;;5015590;28;20037;-57
2021/05/25 08:15:02;;;;;;;43.60;40.53;;;16.20;99.90;;;;;;5015437;28;20030;-57
2021/05/25 08:20:17;;;;;;;45.73;42.37;;;16.10;99.90;;;;;;5014525;28;20487;-58
2021/05/25 08:22:51;;;;;;;42.13;38.88;;;16.10;99.90;;;;;;5015726;28;20258;-57
2021/05/25 08:25:26;;;;;;;43.40;40.33;;;16.10;99.90;;;;;;5015692;28;20058;-57
2021/05/25 08:27:57;;;;;;;43.78;40.72;;;16.10;99.90;;;;;;4997851;28;20419;-57
2021/05/25 08:30:27;;;;;;;43.67;40.38;;;16.10;99.90;;;;;;5015453;28;20026;-57
2021/05/25 08:32:55;;;;;;;43.90;41.00;;;16.10;99.90;;;;;;5015343;28;20026;-59
2021/05/25 08:35:25;;;;;;;45.00;41.80;;;16.10;99.90;;;;;;5015184;28;20033;-57
2021/05/25 08:38:00;;;;;;;45.58;42.15;;;16.20;99.90;;;;;;5015127;28;20041;-57
2021/05/25 08:40:29;;;;;;;44.97;41.88;;;16.10;99.90;;;;;;5015299;28;20033;-58
2021/05/25 08:42:57;;;;;;;45.20;41.92;;;16.10;99.90;;;;;;5015162;28;20414;-58
2021/05/25 08:45:25;;;;;;;46.25;43.05;;;16.10;99.90;;;;;;4997528;28;20062;-58
2021/05/25 08:47:55;;;;;;;44.33;41.35;;;16.10;99.90;;;;;;5015002;28;20030;-58
2021/05/25 08:50:28;;;;;;;47.30;43.70;;;16.00;99.90;;;;;;4998052;28;20104;-59
2021/05/25 08:53:04;;;;;;;42.95;40.00;;;16.00;99.90;;;;;;5014940;28;20379;-57
2021/05/25 08:55:34;;;;;;;41.25;38.55;;;16.00;99.90;;;;;;5015204;28;20101;-58
2021/05/25 08:58:03;;;;;;;39.70;37.20;;;15.90;99.90;;;;;;5014697;28;20026;-59
2021/05/25 09:00:31;;;;;;;42.38;39.78;;;15.90;99.90;;;;;;5014925;28;20063;-59
2021/05/25 09:02:58;;;;;;;42.97;40.25;;;15.80;99.90;;;;;;5014952;28;20026;-58
2021/05/25 09:05:26;;;;;;;41.38;38.47;;;15.70;99.90;;;;;;5014672;28;20471;-57
2021/05/25 09:07:58;;;;;;;42.92;39.75;;;15.80;99.90;;;;;;4997382;28;20056;-58
2021/05/25 09:10:33;;;;;;;42.78;39.95;;;15.80;99.90;;;;;;5014600;28;20026;-57
2021/05/25 09:13:02;;;;;;;41.75;38.95;;;15.70;99.90;;;;;;5014699;28;20026;-57
2021/05/25 09:15:46;;;;;;;42.95;39.97;;;15.70;99.90;;;;;;5014491;28;20026;-57
2021/05/25 09:18:16;;;;;;;42.28;39.47;;;15.60;99.90;;;;;;5014442;28;20398;-57
2021/05/25 09:20:52;;;;;;;42.28;39.58;;;15.60;99.90;;;;;;5014875;28;20521;-58
2021/05/25 09:23:22;;;;;;;41.25;38.20;;;15.70;99.90;;;;;;5014344;28;20493;-58
2021/05/25 09:25:53;;;;;;;40.25;37.65;;;15.70;99.90;;;;;;5014347;28;20483;-58
2021/05/25 09:28:22;;;;;;;43.28;40.58;;;15.70;99.90;;;;;;5014291;28;20041;-58
2021/05/25 09:30:50;;;;;;;44.55;41.30;;;15.70;99.90;;;;;;5014351;28;20034;-58
2021/05/25 09:33:20;;;;;;;44.13;41.50;;;15.60;99.90;;;;;;5014492;28;20553;-57
2021/05/25 09:35:49;;;;;;;43.45;40.75;;;15.50;99.90;;;;;;5014307;28;20034;-59
2021/05/25 09:38:20;;;;;;;43.97;41.45;;;15.50;99.90;;;;;;4996542;28;20549;-58
2021/05/25 09:40:50;;;;;;;40.20;37.47;;;15.50;99.90;;;;;;5014240;28;20487;-57
2021/05/25 09:43:27;;;;;;;40.13;37.70;;;15.50;99.90;;;;;;5014195;28;20022;-58
2021/05/25 09:46:18;;;;;;;38.80;36.35;;;15.50;99.90;;;;;;5014047;28;20026;-58
2021/05/25 09:48:46;;;;;;;43.72;41.13;;;15.50;99.90;;;;;;5013822;28;20100;-56
2021/05/25 09:51:33;;;;;;;40.72;38.33;;;15.40;99.90;;;;;;5014010;28;20407;-57
2021/05/25 09:54:02;;;;;;;40.95;38.58;;;15.60;99.90;;;;;;5014083;28;20391;-57
2021/05/25 09:56:31;;;;;;;39.40;37.08;;;15.50;99.90;;;;;;5013578;28;20044;-58
2021/05/25 09:59:00;;;;;;;38.83;36.72;;;15.40;99.90;;;;;;5013597;28;20042;-59
2021/05/25 10:01:35;;;;;;;38.05;35.85;;;15.50;99.90;;;;;;5013549;28;20471;-59
2021/05/25 10:04:16;;;;;;;39.15;36.95;;;15.50;99.90;;;;;;5013566;28;20033;-59
2021/05/25 10:06:44;;;;;;;;;;;15.40;99.90;;;;;;5014023;28;20038;-58
2021/05/25 10:09:13;;;;;;;40.78;38.58;;;15.50;99.90;;;;;;5013421;28;19956;-59
2021/05/25 10:11:50;;;;;;;46.28;43.90;;;15.50;99.90;;;;;;5013353;28;20033;-59
2021/05/25 10:14:19;;;;;;;42.45;40.22;;;15.40;99.90;;;;;;5013738;28;20084;-57
2021/05/25 10:16:49;;;;;;;41.65;39.53;;;15.40;99.90;;;;;;5013328;28;20504;-58
2021/05/25 10:21:51;;;;;;;42.25;39.80;;;15.40;99.90;;;;;;5013362;28;20506;-56
2021/05/25 10:24:18;;;;;;;42.17;40.00;;;15.40;99.90;;;;;;5013410;28;20491;-63
2021/05/25 10:26:46;;;;;;;43.13;40.72;;;15.40;99.90;;;;;;5013163;28;20036;-58
2021/05/25 10:29:15;;;;;;;43.25;40.72;;;15.30;99.90;;;;;;5013536;28;20113;-58
2021/05/25 10:31:48;;;;;;;43.30;40.83;;;15.20;99.90;;;;;;5013328;28;20026;-58
2021/05/25 10:34:17;;;;;;;44.20;41.70;;;15.20;99.90;;;;;;5013100;28;20081;-58
2021/05/25 10:36:45;;;;;;;44.63;42.17;;;15.20;99.90;;;;;;5013131;28;20471;-60
2021/05/25 10:39:33;;;;;;;44.70;42.20;;;15.10;99.90;;;;;;5013575;28;20442;-59
2021/05/25 10:42:23;;;;;;;43.10;40.60;;;15.20;99.90;;;;;;5012277;28;20077;-58
2021/05/25 10:45:00;;;;;;;44.13;41.42;;;15.20;99.90;;;;;;5013008;28;20013;-59
2021/05/25 10:47:37;;;;;;;44.30;41.88;;;15.20;99.90;;;;;;5012906;28;20037;-58
2021/05/25 10:50:17;;;;;;;42.75;40.35;;;15.20;99.90;;;;;;5012970;28;20022;-59
2021/05/25 10:52:58;;;;;;;44.05;41.65;;;15.20;99.90;;;;;;5013208;28;20076;-58
2021/05/25 10:55:33;;;;;;;42.95;40.45;;;15.20;99.90;;;;;;5012968;28;20070;-59
2021/05/25 10:58:01;;;;;;;44.42;41.83;;;15.20;99.90;;;;;;5012733;28;20030;-58
2021/05/25 11:00:30;;;;;;;46.10;43.30;;;15.20;99.90;;;;;;5012970;28;20037;-58
2021/05/25 11:03:06;;;;;;;45.58;43.00;;;15.10;99.90;;;;;;5013203;28;20074;-58
2021/05/25 11:05:37;;;;;;;45.25;42.47;;;15.10;99.90;;;;;;5013420;28;20018;-58
2021/05/25 11:08:11;;;;;;;44.70;41.95;;;15.00;99.90;;;;;;5012809;28;20037;-59
2021/05/25 11:10:53;;;;;;;44.22;41.55;;;15.00;99.90;;;;;;5012792;28;20433;-59
2021/05/25 11:13:29;;;;;;;47.65;44.97;;;15.00;99.90;;;;;;5012953;28;20036;-59
2021/05/25 11:16:10;;;;;;;48.35;45.42;;;15.00;99.90;;;;;;5012743;28;20056;-59
2021/05/25 11:24:35;;;;;;;46.97;43.15;;;15.00;99.90;;;;;;5013088;28;20022;-59
2021/05/25 11:27:20;;;;;;;47.03;44.42;;;14.90;99.90;;;;;;5012597;28;20113;-59
2021/05/25 11:29:52;;;;;;;48.17;45.17;;;14.80;99.90;;;;;;5012817;28;20506;-59
2021/05/25 11:32:24;;;;;;;49.88;46.78;;;14.80;99.90;;;;;;5012484;28;20034;-58
2021/05/25 11:34:59;;;;;;;51.47;48.22;;;14.80;99.90;;;;;;5012511;28;20033;-58
2021/05/25 11:37:27;;;;;;;50.08;47.28;;;14.70;99.90;;;;;;5012382;28;20033;-60
2021/05/25 11:39:55;;;;;;;50.03;47.22;;;14.70;99.90;;;;;;5012655;28;20080;-59
2021/05/25 11:42:33;;;;;;;49.60;46.60;;;14.90;99.90;;;;;;4994898;28;20049;-59
2021/05/25 11:45:01;;;;;;;45.83;43.20;;;14.90;99.90;;;;;;5012498;28;20033;-59
2021/05/25 11:47:29;;;;;;;48.85;45.88;;;14.80;99.90;;;;;;5012253;28;20117;-59
2021/05/25 11:49:56;;;;;;;50.33;47.55;;;14.80;99.90;;;;;;4994868;28;20034;-59
2021/05/25 11:52:30;;;;;;;50.78;48.08;;;14.70;99.90;;;;;;5012440;28;20019;-59
2021/05/25 11:54:59;;;;;;;48.38;45.45;;;14.70;99.90;;;;;;5013887;28;20028;-58
2021/05/25 11:57:31;;;;;;;47.22;44.63;;;14.90;99.90;;;;;;5016136;28;20035;-59
2021/05/25 12:00:07;;;;;;;47.75;45.13;;;14.70;99.90;;;;;;5015775;28;20117;-57
2021/05/25 12:02:35;;;;;;;49.45;46.65;;;14.70;99.90;;;;;;5016001;28;20048;-58
2021/05/25 12:05:06;;;;;;;45.53;42.67;;;14.70;99.90;;;;;;4998166;28;20025;-59
2021/05/25 12:07:34;;;;;;;46.00;43.15;;;14.70;99.90;;;;;;5015739;28;20026;-59
2021/05/25 12:10:04;;;;;;;47.58;44.50;;;14.60;99.90;;;;;;5015800;28;20075;-58
2021/05/25 12:12:31;;;;;;;50.20;47.30;;;14.70;99.90;;;;;;5015915;28;20156;-59
2021/05/25 12:15:00;;;;;;;49.25;46.63;;;14.70;99.90;;;;;;5016047;28;20101;-59
2021/05/25 12:17:29;;;;;;;48.08;45.38;;;14.70;99.90;;;;;;5015444;28;20037;-58
2021/05/25 12:20:00;;;;;;;50.53;47.63;;;14.70;99.90;;;;;;5015542;28;20486;-59
2021/05/25 12:22:40;;;;;;;50.85;48.05;;;14.70;99.90;;;;;;5015660;28;20081;-58
2021/05/25 12:25:34;;;;;;;48.75;46.10;;;14.60;99.90;;;;;;5015574;28;20030;-59
2021/05/25 12:28:15;;;;;;;48.50;45.80;;;14.70;99.90;;;;;;5013001;28;20038;-58
2021/05/25 12:30:55;;;;;;;48.20;45.53;;;14.70;99.90;;;;;;5016219;28;20025;-59
2021/05/25 12:33:26;;;;;;;43.00;40.40;;;14.70;99.90;;;;;;5015363;28;20041;-58
2021/05/25 12:35:53;;;;;;;44.60;42.00;;;14.70;99.90;;;;;;5015359;28;20041;-59
2021/05/25 12:38:22;;;;;;;43.70;41.25;;;14.80;99.90;;;;;;5015266;28;20112;-58
2021/05/25 12:41:02;;;;;;;44.50;42.00;;;14.90;99.90;;;;;;5015379;28;20022;-59
2021/05/25 12:43:32;;;;;;;44.70;42.25;;;14.80;99.90;;;;;;5015105;28;20030;-57
2021/05/25 12:46:11;;;;;;;43.40;41.10;;;14.90;99.90;;;;;;5015228;28;20025;-58
2021/05/25 12:48:42;;;;;;;50.08;47.25;;;14.90;99.90;;;;;;5015232;28;20030;-59
2021/05/25 12:51:11;;;;;;;46.78;44.20;;;14.90;99.90;;;;;;5015164;28;20029;-58
2021/05/25 12:53:53;;;;;;;45.80;43.40;;;15.00;99.90;;;;;;5015053;28;20025;-59
2021/05/25 12:56:22;;;;;;;46.15;43.65;;;15.00;99.90;;;;;;5015055;28;20291;-59
2021/05/25 12:58:52;;;;;;;43.83;41.33;;;14.80;99.90;;;;;;5014920;28;20100;-59
2021/05/25 13:01:28;;;;;;;43.90;41.50;;;14.80;99.90;;;;;;5015121;28;20105;-59
2021/05/25 13:04:14;;;;;;;45.53;43.03;;;14.70;99.90;;;;;;5015191;28;20022;-59